createdAt,value
2022-10-05T00:03:25.529Z,1.08
2022-10-05T00:08:31.923Z,1.13
2022-10-05T00:13:33.919Z,0.77
2022-10-05T00:18:35.934Z,0.75
2022-10-05T00:23:37.770Z,0.60
2022-10-05T00:28:41.348Z,0.60
2022-10-05T00:33:43.239Z,0.80
2022-10-05T00:38:45.291Z,0.77
2022-10-05T00:44:16.096Z,0.90
2022-10-05T00:49:20.997Z,0.80
2022-10-05T00:54:40.634Z,0.60
2022-10-05T00:59:45.533Z,0.60
2022-10-05T01:05:04.438Z,0.60
2022-10-05T01:10:32.734Z,0.70
2022-10-05T01:15:49.770Z,0.50
2022-10-05T01:21:10.401Z,0.60
2022-10-05T01:26:38.001Z,0.50
2022-10-05T01:32:08.290Z,0.70
2022-10-05T01:37:27.377Z,0.43
2022-10-05T01:42:30.471Z,0.77
2022-10-05T01:47:45.951Z,0.57
2022-10-05T01:52:50.734Z,0.60
2022-10-05T01:58:20.283Z,0.65
2022-10-05T02:03:31.011Z,0.80
2022-10-05T02:09:06.057Z,0.52
2022-10-05T02:14:23.097Z,0.70
2022-10-05T02:19:38.056Z,0.70
2022-10-05T02:24:49.021Z,0.70
2022-10-05T02:29:54.230Z,0.60
2022-10-05T02:35:02.151Z,0.80
2022-10-05T02:40:25.657Z,0.55
2022-10-05T02:45:46.993Z,0.50
2022-10-05T02:50:55.893Z,0.63
2022-10-05T03:01:27.707Z,0.88
2022-10-05T03:06:36.642Z,0.77
2022-10-05T03:11:47.037Z,0.88
2022-10-05T03:22:50.232Z,0.68
2022-10-05T03:28:09.118Z,0.93
2022-10-05T03:33:29.514Z,0.60
2022-10-05T03:38:58.542Z,1.10
2022-10-05T03:44:37.761Z,0.75
2022-10-05T03:49:42.833Z,1.13
2022-10-05T03:54:49.404Z,1.27
2022-10-05T04:00:02.648Z,1.40
2022-10-05T04:05:21.893Z,1.13
2022-10-05T04:10:29.174Z,1.20
2022-10-05T04:15:37.836Z,1.25
2022-10-05T04:20:47.606Z,1.23
2022-10-05T04:25:54.293Z,1.90
2022-10-05T04:30:57.244Z,1.58
2022-10-05T04:36:20.897Z,1.40
2022-10-05T04:41:31.995Z,1.30
2022-10-05T04:46:36.798Z,1.35
2022-10-05T04:51:41.919Z,1.20
2022-10-05T04:56:52.861Z,1.42
2022-10-05T05:02:03.581Z,1.77
2022-10-05T05:07:15.294Z,2.30
2022-10-05T05:12:23.127Z,3.45
2022-10-05T05:17:43.376Z,2.08
2022-10-05T05:22:57.466Z,1.67
2022-10-05T05:28:06.078Z,1.20
2022-10-05T05:33:14.018Z,1.38
2022-10-05T05:38:40.509Z,1.75
2022-10-05T05:44:23.907Z,1.58
2022-10-05T05:49:57.385Z,2.03
2022-10-05T05:55:30.325Z,2.00
2022-10-05T06:00:42.340Z,1.80
2022-10-05T06:05:50.037Z,1.90
2022-10-05T06:11:21.982Z,1.55
2022-10-05T06:16:34.048Z,1.90
2022-10-05T06:21:44.537Z,1.48
2022-10-05T06:27:20.981Z,2.22
2022-10-05T06:32:29.649Z,1.42
2022-10-05T06:37:46.083Z,1.48
2022-10-05T06:43:06.167Z,2.58
2022-10-05T06:48:35.221Z,1.63
2022-10-05T06:54:29.387Z,1.77
2022-10-05T07:00:03.944Z,1.55
2022-10-05T07:06:00.312Z,1.17
2022-10-05T07:11:15.128Z,1.13
2022-10-05T07:16:41.551Z,1.10
2022-10-05T07:21:57.544Z,1.10
2022-10-05T07:27:07.074Z,0.90
2022-10-05T07:32:24.191Z,0.90
2022-10-05T07:37:57.830Z,1.40
2022-10-05T07:43:14.666Z,1.17
2022-10-05T07:48:47.435Z,0.97
2022-10-05T07:54:15.886Z,1.00
2022-10-05T07:59:59.613Z,1.13
2022-10-05T08:05:13.508Z,1.27
2022-10-05T08:10:55.344Z,1.48
2022-10-05T08:16:12.681Z,1.20
2022-10-05T08:21:19.644Z,1.20
2022-10-05T08:26:32.069Z,1.10
2022-10-05T08:31:37.390Z,1.42
2022-10-05T08:36:39.145Z,1.80
2022-10-05T08:42:19.494Z,1.77
2022-10-05T08:47:47.359Z,1.73
2022-10-05T08:53:15.019Z,1.85
2022-10-05T08:58:41.351Z,2.25
2022-10-05T09:04:03.885Z,2.60
2022-10-05T09:09:17.825Z,2.40
2022-10-05T09:14:32.656Z,2.60
2022-10-05T09:20:15.166Z,3.15
2022-10-05T09:26:10.393Z,3.60
2022-10-05T09:32:00.643Z,3.00
2022-10-05T09:37:46.262Z,3.55
2022-10-05T09:42:59.979Z,2.80
2022-10-05T09:48:37.505Z,2.75
2022-10-05T09:54:11.821Z,3.15
2022-10-05T09:59:55.046Z,3.15
2022-10-05T10:05:31.907Z,3.22
2022-10-05T10:11:08.311Z,2.80
2022-10-05T10:16:31.224Z,2.92
2022-10-05T10:22:04.512Z,3.03
2022-10-05T10:27:33.610Z,3.70
2022-10-05T10:33:03.279Z,2.90
2022-10-05T10:38:35.951Z,2.78
2022-10-05T10:44:08.500Z,2.45
2022-10-05T10:49:36.795Z,2.55
2022-10-05T10:55:09.818Z,2.58
2022-10-05T11:00:20.297Z,2.90
2022-10-05T11:10:39.227Z,1.90
2022-10-05T11:16:00.831Z,2.30
2022-10-05T11:21:11.919Z,2.17
2022-10-05T11:26:32.587Z,2.20
2022-10-05T11:32:10.131Z,2.00
2022-10-05T11:37:40.208Z,2.35
2022-10-05T11:42:50.659Z,2.50
2022-10-05T11:53:25.367Z,2.08
2022-10-05T11:58:33.775Z,2.00
2022-10-05T12:03:57.174Z,2.55
2022-10-05T12:09:40.246Z,1.38
2022-10-05T12:15:03.385Z,1.30
2022-10-05T12:20:42.141Z,1.75
2022-10-05T12:25:53.742Z,1.33
2022-10-05T12:36:12.258Z,1.48
2022-10-05T12:41:48.152Z,1.52
2022-10-05T12:47:07.220Z,1.38
2022-10-05T12:52:40.129Z,1.58
2022-10-05T12:58:06.641Z,1.60
2022-10-05T13:03:27.786Z,1.40
2022-10-05T13:08:55.722Z,3.50
2022-10-05T13:14:03.354Z,1.52
2022-10-05T13:19:23.793Z,1.50
2022-10-05T13:24:44.029Z,1.30
2022-10-05T13:30:13.421Z,1.40
2022-10-05T13:35:34.595Z,1.60
2022-10-05T13:41:13.190Z,1.52
2022-10-05T13:47:09.251Z,1.63
2022-10-05T13:52:29.267Z,1.70
2022-10-05T13:57:53.072Z,1.40
2022-10-05T14:03:01.074Z,1.38
2022-10-05T14:08:02.911Z,1.65
2022-10-05T14:13:31.975Z,1.55
2022-10-05T14:18:37.867Z,1.40
2022-10-05T14:23:39.710Z,1.63
2022-10-05T14:28:43.736Z,1.83
2022-10-05T14:33:45.648Z,1.40
2022-10-05T14:39:02.186Z,1.90
2022-10-05T14:44:09.904Z,1.77
2022-10-05T14:49:25.788Z,1.63
2022-10-05T14:54:33.684Z,1.92
2022-10-05T14:59:50.794Z,1.73
2022-10-05T15:05:05.454Z,1.75
2022-10-05T15:10:19.252Z,1.73
2022-10-05T15:15:39.787Z,2.50
2022-10-05T15:20:56.304Z,1.92
2022-10-05T15:26:10.737Z,1.90
2022-10-05T15:31:43.001Z,3.60
2022-10-05T15:37:15.126Z,2.60
2022-10-05T15:42:22.659Z,2.05
2022-10-05T15:47:34.335Z,2.65
2022-10-05T15:52:40.788Z,2.40
2022-10-05T15:57:53.589Z,4.82
2022-10-05T16:02:58.330Z,4.60
2022-10-05T16:08:19.504Z,2.90
2022-10-05T16:13:38.053Z,2.70
2022-10-05T16:18:57.538Z,3.65
2022-10-05T16:24:17.434Z,4.15
2022-10-05T16:29:24.030Z,2.60
2022-10-05T16:34:47.108Z,2.10
2022-10-05T16:39:53.211Z,13.27
2022-10-05T16:44:58.073Z,3.75
2022-10-05T16:50:43.241Z,5.03
2022-10-05T16:55:52.637Z,12.05
2022-10-05T17:01:23.541Z,4.93
2022-10-05T17:06:44.436Z,3.40
2022-10-05T17:12:10.586Z,3.70
2022-10-05T17:17:28.208Z,3.85
2022-10-05T17:22:50.893Z,3.45
2022-10-05T17:28:21.975Z,3.33
2022-10-05T17:33:30.582Z,3.70
2022-10-05T17:38:35.365Z,3.47
2022-10-05T17:43:37.793Z,5.50
2022-10-05T17:48:52.519Z,9.90
2022-10-05T17:54:34.063Z,6.43
2022-10-05T17:59:55.795Z,3.38
2022-10-05T18:05:07.069Z,2.92
2022-10-05T18:10:11.967Z,3.50
2022-10-05T18:15:26.379Z,5.65
2022-10-05T18:20:30.421Z,5.65
2022-10-05T18:26:26.642Z,5.75
2022-10-05T18:31:45.409Z,2.35
2022-10-05T18:37:12.368Z,3.13
2022-10-05T18:42:30.333Z,1.90
2022-10-05T18:47:49.596Z,2.20
2022-10-05T18:53:07.690Z,2.10
2022-10-05T18:58:14.496Z,1.85
2022-10-05T19:03:28.243Z,2.50
2022-10-05T19:08:36.348Z,2.20
2022-10-05T19:14:00.910Z,3.08
2022-10-05T19:19:29.411Z,2.10
2022-10-05T19:24:55.867Z,2.20
2022-10-05T19:30:22.080Z,1.73
2022-10-05T19:35:58.341Z,1.95
2022-10-05T19:41:20.178Z,1.58
2022-10-05T19:47:10.258Z,1.60
2022-10-05T19:52:21.147Z,1.80
2022-10-05T19:57:23.134Z,1.55
2022-10-05T20:02:28.126Z,2.00
2022-10-05T20:07:30.031Z,1.70
2022-10-05T20:12:51.103Z,1.63
2022-10-05T20:18:11.795Z,1.88
2022-10-05T20:23:24.630Z,1.45
2022-10-05T20:28:31.343Z,1.77
2022-10-05T20:33:34.532Z,1.55
2022-10-05T20:38:40.575Z,1.63
2022-10-05T20:43:43.326Z,2.15
2022-10-05T20:48:45.893Z,1.75
2022-10-05T20:53:47.698Z,1.45
2022-10-05T20:58:50.483Z,1.92
2022-10-05T21:03:53.608Z,1.55
2022-10-05T21:08:55.771Z,1.60
2022-10-05T21:14:00.001Z,1.73
2022-10-05T21:19:09.609Z,1.27
2022-10-05T21:24:15.567Z,1.42
2022-10-05T21:29:17.480Z,1.25
2022-10-05T21:34:19.348Z,1.80
2022-10-05T21:39:21.221Z,1.65
2022-10-05T21:44:23.004Z,2.00
2022-10-05T21:49:25.877Z,1.55
2022-10-05T21:54:28.708Z,1.30
2022-10-05T21:59:32.993Z,1.30
2022-10-05T22:04:34.807Z,1.45
2022-10-05T22:09:36.627Z,1.60
2022-10-05T22:14:38.482Z,1.70
2022-10-05T22:19:40.738Z,1.40
2022-10-05T22:24:42.658Z,1.58
2022-10-05T22:29:44.632Z,1.73
2022-10-05T22:34:46.523Z,1.55
2022-10-05T22:39:49.070Z,1.40
2022-10-05T22:44:50.867Z,1.65
2022-10-05T22:49:52.697Z,1.60
2022-10-05T22:54:54.703Z,1.60
2022-10-05T22:59:56.513Z,1.58
2022-10-05T23:04:59.121Z,1.60
2022-10-05T23:10:00.960Z,1.85
2022-10-05T23:15:03.406Z,1.60
2022-10-05T23:20:07.475Z,1.70
2022-10-05T23:25:09.599Z,2.17
2022-10-05T23:30:12.954Z,1.40
2022-10-05T23:35:15.132Z,1.63
2022-10-05T23:40:16.988Z,2.15
2022-10-05T23:45:18.803Z,1.73
2022-10-05T23:50:21.241Z,1.80
2022-10-05T23:55:23.092Z,2.13
